sensor_id;sensor_type;location;lat;lon;timestamp;P1;durP1;ratioP1;P2;durP2;ratioP2
52554;SDS011;38455;52.710;6.502;2023-05-20T00:00:06;12.18;;;4.75;;
52554;SDS011;38455;52.710;6.502;2023-05-20T00:02:33;11.77;;;5.82;;
52554;SDS011;38455;52.710;6.502;2023-05-20T00:04:59;11.75;;;4.68;;
52554;SDS011;38455;52.710;6.502;2023-05-20T00:07:25;16.35;;;5.78;;
52554;SDS011;38455;52.710;6.502;2023-05-20T00:09:51;10.05;;;4.10;;
52554;SDS011;38455;52.710;6.502;2023-05-20T00:12:16;8.98;;;4.75;;
52554;SDS011;38455;52.710;6.502;2023-05-20T00:14:42;12.85;;;4.60;;
52554;SDS011;38455;52.710;6.502;2023-05-20T00:17:07;12.85;;;4.68;;
52554;SDS011;38455;52.710;6.502;2023-05-20T00:19:33;10.68;;;5.28;;
52554;SDS011;38455;52.710;6.502;2023-05-20T00:21:59;10.93;;;4.95;;
52554;SDS011;38455;52.710;6.502;2023-05-20T00:24:25;20.88;;;5.60;;
52554;SDS011;38455;52.710;6.502;2023-05-20T00:26:51;10.05;;;4.43;;
52554;SDS011;38455;52.710;6.502;2023-05-20T00:29:18;11.93;;;4.63;;
52554;SDS011;38455;52.710;6.502;2023-05-20T00:31:45;8.15;;;4.25;;
52554;SDS011;38455;52.710;6.502;2023-05-20T00:34:10;16.23;;;5.03;;
52554;SDS011;38455;52.710;6.502;2023-05-20T00:36:36;9.65;;;4.88;;
52554;SDS011;38455;52.710;6.502;2023-05-20T00:39:01;9.77;;;4.88;;
52554;SDS011;38455;52.710;6.502;2023-05-20T00:41:27;11.27;;;4.47;;
52554;SDS011;38455;52.710;6.502;2023-05-20T00:43:53;11.07;;;4.60;;
52554;SDS011;38455;52.710;6.502;2023-05-20T00:46:19;9.73;;;4.55;;
52554;SDS011;38455;52.710;6.502;2023-05-20T00:48:45;10.68;;;4.60;;
52554;SDS011;38455;52.710;6.502;2023-05-20T00:51:12;8.63;;;4.68;;
52554;SDS011;38455;52.710;6.502;2023-05-20T00:53:38;14.63;;;5.43;;
52554;SDS011;38455;52.710;6.502;2023-05-20T00:56:05;9.80;;;4.80;;
52554;SDS011;38455;52.710;6.502;2023-05-20T00:58:32;11.50;;;4.68;;
52554;SDS011;38455;52.710;6.502;2023-05-20T01:01:00;11.50;;;4.30;;
52554;SDS011;38455;52.710;6.502;2023-05-20T01:03:27;10.07;;;4.47;;
52554;SDS011;38455;52.710;6.502;2023-05-20T01:05:53;9.60;;;4.50;;
52554;SDS011;38455;52.710;6.502;2023-05-20T01:08:19;9.38;;;5.00;;
52554;SDS011;38455;52.710;6.502;2023-05-20T01:10:50;18.80;;;5.80;;
52554;SDS011;38455;52.710;6.502;2023-05-20T01:13:28;10.25;;;4.85;;
52554;SDS011;38455;52.710;6.502;2023-05-20T01:15:59;8.93;;;5.55;;
52554;SDS011;38455;52.710;6.502;2023-05-20T01:18:27;13.85;;;6.03;;
52554;SDS011;38455;52.710;6.502;2023-05-20T01:20:56;8.57;;;4.50;;
52554;SDS011;38455;52.710;6.502;2023-05-20T01:23:38;11.88;;;4.90;;
52554;SDS011;38455;52.710;6.502;2023-05-20T01:26:05;10.65;;;4.57;;
52554;SDS011;38455;52.710;6.502;2023-05-20T01:28:31;8.80;;;4.60;;
52554;SDS011;38455;52.710;6.502;2023-05-20T01:30:58;10.15;;;5.05;;
52554;SDS011;38455;52.710;6.502;2023-05-20T01:33:26;11.55;;;4.97;;
52554;SDS011;38455;52.710;6.502;2023-05-20T01:35:53;10.88;;;4.93;;
52554;SDS011;38455;52.710;6.502;2023-05-20T01:38:20;8.90;;;4.38;;
52554;SDS011;38455;52.710;6.502;2023-05-20T01:40:48;11.05;;;4.60;;
52554;SDS011;38455;52.710;6.502;2023-05-20T01:43:14;5.80;;;4.32;;
52554;SDS011;38455;52.710;6.502;2023-05-20T01:45:42;7.65;;;4.50;;
52554;SDS011;38455;52.710;6.502;2023-05-20T01:48:09;10.15;;;5.05;;
52554;SDS011;38455;52.710;6.502;2023-05-20T01:50:35;10.48;;;4.55;;
52554;SDS011;38455;52.710;6.502;2023-05-20T01:53:04;14.48;;;4.93;;
52554;SDS011;38455;52.710;6.502;2023-05-20T01:55:32;14.05;;;4.68;;
52554;SDS011;38455;52.710;6.502;2023-05-20T01:57:58;11.50;;;5.72;;
52554;SDS011;38455;52.710;6.502;2023-05-20T02:00:23;9.65;;;4.78;;
52554;SDS011;38455;52.710;6.502;2023-05-20T02:02:49;9.57;;;4.60;;
52554;SDS011;38455;52.710;6.502;2023-05-20T02:05:15;12.93;;;4.30;;
52554;SDS011;38455;52.710;6.502;2023-05-20T02:07:41;12.85;;;5.18;;
52554;SDS011;38455;52.710;6.502;2023-05-20T02:10:06;9.75;;;4.40;;
52554;SDS011;38455;52.710;6.502;2023-05-20T02:12:32;8.18;;;4.10;;
52554;SDS011;38455;52.710;6.502;2023-05-20T02:14:58;8.82;;;3.95;;
52554;SDS011;38455;52.710;6.502;2023-05-20T02:17:24;7.00;;;4.28;;
52554;SDS011;38455;52.710;6.502;2023-05-20T02:19:50;12.32;;;4.60;;
52554;SDS011;38455;52.710;6.502;2023-05-20T02:22:16;9.25;;;4.40;;
52554;SDS011;38455;52.710;6.502;2023-05-20T02:24:42;11.07;;;4.22;;
52554;SDS011;38455;52.710;6.502;2023-05-20T02:27:08;8.05;;;4.00;;
52554;SDS011;38455;52.710;6.502;2023-05-20T02:29:34;14.95;;;4.70;;
52554;SDS011;38455;52.710;6.502;2023-05-20T02:32:00;8.68;;;4.72;;
52554;SDS011;38455;52.710;6.502;2023-05-20T02:34:26;9.80;;;4.45;;
52554;SDS011;38455;52.710;6.502;2023-05-20T02:36:52;10.95;;;4.82;;
52554;SDS011;38455;52.710;6.502;2023-05-20T02:39:18;17.23;;;4.40;;
52554;SDS011;38455;52.710;6.502;2023-05-20T02:41:44;8.93;;;3.72;;
52554;SDS011;38455;52.710;6.502;2023-05-20T02:44:09;8.98;;;4.30;;
52554;SDS011;38455;52.710;6.502;2023-05-20T02:46:35;10.45;;;4.28;;
52554;SDS011;38455;52.710;6.502;2023-05-20T02:49:01;9.90;;;4.20;;
52554;SDS011;38455;52.710;6.502;2023-05-20T02:51:26;10.35;;;5.93;;
52554;SDS011;38455;52.710;6.502;2023-05-20T02:53:52;8.38;;;3.60;;
52554;SDS011;38455;52.710;6.502;2023-05-20T02:56:18;8.63;;;4.28;;
52554;SDS011;38455;52.710;6.502;2023-05-20T02:58:46;9.20;;;4.05;;
52554;SDS011;38455;52.710;6.502;2023-05-20T03:01:12;10.15;;;4.30;;
52554;SDS011;38455;52.710;6.502;2023-05-20T03:03:38;8.60;;;4.60;;
52554;SDS011;38455;52.710;6.502;2023-05-20T03:06:04;9.35;;;4.03;;
52554;SDS011;38455;52.710;6.502;2023-05-20T03:08:31;9.73;;;4.22;;
52554;SDS011;38455;52.710;6.502;2023-05-20T03:11:01;9.95;;;4.57;;
52554;SDS011;38455;52.710;6.502;2023-05-20T03:13:27;10.65;;;4.05;;
52554;SDS011;38455;52.710;6.502;2023-05-20T03:15:52;7.28;;;4.35;;
52554;SDS011;38455;52.710;6.502;2023-05-20T03:18:18;10.13;;;3.90;;
52554;SDS011;38455;52.710;6.502;2023-05-20T03:20:44;11.98;;;4.63;;
52554;SDS011;38455;52.710;6.502;2023-05-20T03:23:10;9.93;;;4.30;;
52554;SDS011;38455;52.710;6.502;2023-05-20T03:25:36;9.25;;;4.15;;
52554;SDS011;38455;52.710;6.502;2023-05-20T03:28:02;11.45;;;4.63;;
52554;SDS011;38455;52.710;6.502;2023-05-20T03:30:29;10.70;;;4.43;;
52554;SDS011;38455;52.710;6.502;2023-05-20T03:32:55;9.93;;;5.05;;
52554;SDS011;38455;52.710;6.502;2023-05-20T03:35:24;8.52;;;3.92;;
52554;SDS011;38455;52.710;6.502;2023-05-20T03:37:50;8.55;;;3.95;;
52554;SDS011;38455;52.710;6.502;2023-05-20T03:40:17;9.48;;;4.30;;
52554;SDS011;38455;52.710;6.502;2023-05-20T03:42:44;11.60;;;3.90;;
52554;SDS011;38455;52.710;6.502;2023-05-20T03:45:10;11.48;;;3.75;;
52554;SDS011;38455;52.710;6.502;2023-05-20T03:47:36;8.13;;;4.28;;
52554;SDS011;38455;52.710;6.502;2023-05-20T03:50:01;8.98;;;4.00;;
52554;SDS011;38455;52.710;6.502;2023-05-20T03:52:27;10.05;;;3.88;;
52554;SDS011;38455;52.710;6.502;2023-05-20T03:54:53;7.97;;;4.38;;
52554;SDS011;38455;52.710;6.502;2023-05-20T03:57:18;8.43;;;4.13;;
52554;SDS011;38455;52.710;6.502;2023-05-20T03:59:44;11.00;;;3.63;;
52554;SDS011;38455;52.710;6.502;2023-05-20T04:02:10;7.90;;;3.58;;
52554;SDS011;38455;52.710;6.502;2023-05-20T04:04:36;9.13;;;4.22;;
52554;SDS011;38455;52.710;6.502;2023-05-20T04:07:02;11.68;;;5.07;;
52554;SDS011;38455;52.710;6.502;2023-05-20T04:09:29;10.10;;;3.83;;
52554;SDS011;38455;52.710;6.502;2023-05-20T04:11:54;6.53;;;3.78;;
52554;SDS011;38455;52.710;6.502;2023-05-20T04:14:21;9.20;;;3.75;;
52554;SDS011;38455;52.710;6.502;2023-05-20T04:16:46;10.75;;;4.28;;
52554;SDS011;38455;52.710;6.502;2023-05-20T04:19:14;8.57;;;3.90;;
52554;SDS011;38455;52.710;6.502;2023-05-20T04:21:41;7.78;;;3.83;;
52554;SDS011;38455;52.710;6.502;2023-05-20T04:24:07;8.75;;;3.60;;
52554;SDS011;38455;52.710;6.502;2023-05-20T04:26:33;7.03;;;3.40;;
52554;SDS011;38455;52.710;6.502;2023-05-20T04:28:59;7.15;;;3.63;;
52554;SDS011;38455;52.710;6.502;2023-05-20T04:31:28;8.43;;;3.63;;
52554;SDS011;38455;52.710;6.502;2023-05-20T04:33:55;7.07;;;3.20;;
52554;SDS011;38455;52.710;6.502;2023-05-20T04:36:21;7.57;;;3.85;;
52554;SDS011;38455;52.710;6.502;2023-05-20T04:38:46;6.55;;;3.72;;
52554;SDS011;38455;52.710;6.502;2023-05-20T04:41:13;6.88;;;3.47;;
52554;SDS011;38455;52.710;6.502;2023-05-20T04:43:40;6.30;;;3.20;;
52554;SDS011;38455;52.710;6.502;2023-05-20T04:46:05;10.05;;;2.95;;
52554;SDS011;38455;52.710;6.502;2023-05-20T04:48:31;6.72;;;3.25;;
52554;SDS011;38455;52.710;6.502;2023-05-20T04:50:57;6.78;;;3.22;;
52554;SDS011;38455;52.710;6.502;2023-05-20T04:53:23;9.02;;;4.97;;
52554;SDS011;38455;52.710;6.502;2023-05-20T04:55:49;9.40;;;3.17;;
52554;SDS011;38455;52.710;6.502;2023-05-20T04:58:19;4.68;;;2.40;;
52554;SDS011;38455;52.710;6.502;2023-05-20T05:00:48;3.55;;;2.25;;
52554;SDS011;38455;52.710;6.502;2023-05-20T05:03:15;5.07;;;3.10;;
52554;SDS011;38455;52.710;6.502;2023-05-20T05:05:41;6.40;;;2.42;;
52554;SDS011;38455;52.710;6.502;2023-05-20T05:08:08;12.45;;;2.85;;
52554;SDS011;38455;52.710;6.502;2023-05-20T05:10:35;3.58;;;2.15;;
52554;SDS011;38455;52.710;6.502;2023-05-20T05:13:01;6.35;;;2.30;;
52554;SDS011;38455;52.710;6.502;2023-05-20T05:15:27;9.00;;;2.85;;
52554;SDS011;38455;52.710;6.502;2023-05-20T05:17:53;6.78;;;2.88;;
52554;SDS011;38455;52.710;6.502;2023-05-20T05:20:19;3.83;;;2.10;;
52554;SDS011;38455;52.710;6.502;2023-05-20T05:22:45;5.03;;;1.98;;
52554;SDS011;38455;52.710;6.502;2023-05-20T05:25:11;5.63;;;1.90;;
52554;SDS011;38455;52.710;6.502;2023-05-20T05:27:37;6.63;;;2.70;;
52554;SDS011;38455;52.710;6.502;2023-05-20T05:30:04;8.10;;;2.33;;
52554;SDS011;38455;52.710;6.502;2023-05-20T05:32:31;7.00;;;2.28;;
52554;SDS011;38455;52.710;6.502;2023-05-20T05:34:57;3.78;;;2.03;;
52554;SDS011;38455;52.710;6.502;2023-05-20T05:37:23;4.13;;;2.17;;
52554;SDS011;38455;52.710;6.502;2023-05-20T05:39:48;4.35;;;1.95;;
52554;SDS011;38455;52.710;6.502;2023-05-20T05:42:14;3.97;;;1.92;;
52554;SDS011;38455;52.710;6.502;2023-05-20T05:44:40;4.55;;;2.00;;
52554;SDS011;38455;52.710;6.502;2023-05-20T05:47:05;10.10;;;2.03;;
52554;SDS011;38455;52.710;6.502;2023-05-20T05:49:31;6.60;;;1.80;;
52554;SDS011;38455;52.710;6.502;2023-05-20T05:51:57;4.38;;;2.10;;
52554;SDS011;38455;52.710;6.502;2023-05-20T05:54:23;3.83;;;1.88;;
52554;SDS011;38455;52.710;6.502;2023-05-20T05:56:52;3.05;;;1.73;;
52554;SDS011;38455;52.710;6.502;2023-05-20T05:59:18;4.18;;;1.92;;
52554;SDS011;38455;52.710;6.502;2023-05-20T06:01:44;4.32;;;1.45;;
52554;SDS011;38455;52.710;6.502;2023-05-20T06:04:10;5.13;;;1.60;;
52554;SDS011;38455;52.710;6.502;2023-05-20T06:06:35;3.63;;;1.85;;
52554;SDS011;38455;52.710;6.502;2023-05-20T06:09:01;4.45;;;1.92;;
52554;SDS011;38455;52.710;6.502;2023-05-20T06:11:27;5.55;;;1.90;;
52554;SDS011;38455;52.710;6.502;2023-05-20T06:13:53;5.15;;;1.70;;
52554;SDS011;38455;52.710;6.502;2023-05-20T06:16:18;2.35;;;1.40;;
52554;SDS011;38455;52.710;6.502;2023-05-20T06:18:44;7.55;;;2.33;;
52554;SDS011;38455;52.710;6.502;2023-05-20T06:21:10;5.10;;;1.88;;
52554;SDS011;38455;52.710;6.502;2023-05-20T06:23:36;6.68;;;2.22;;
52554;SDS011;38455;52.710;6.502;2023-05-20T06:26:02;9.90;;;2.22;;
52554;SDS011;38455;52.710;6.502;2023-05-20T06:28:28;4.93;;;1.67;;
52554;SDS011;38455;52.710;6.502;2023-05-20T06:30:54;4.22;;;1.75;;
52554;SDS011;38455;52.710;6.502;2023-05-20T06:33:22;6.20;;;2.58;;
52554;SDS011;38455;52.710;6.502;2023-05-20T06:35:54;3.63;;;1.70;;
52554;SDS011;38455;52.710;6.502;2023-05-20T06:38:20;3.28;;;1.58;;
52554;SDS011;38455;52.710;6.502;2023-05-20T06:40:46;3.03;;;1.60;;
52554;SDS011;38455;52.710;6.502;2023-05-20T06:43:16;4.30;;;1.58;;
52554;SDS011;38455;52.710;6.502;2023-05-20T06:45:41;6.05;;;1.80;;
52554;SDS011;38455;52.710;6.502;2023-05-20T06:48:08;3.13;;;1.42;;
52554;SDS011;38455;52.710;6.502;2023-05-20T06:50:34;5.03;;;1.90;;
52554;SDS011;38455;52.710;6.502;2023-05-20T06:52:59;6.00;;;1.67;;
52554;SDS011;38455;52.710;6.502;2023-05-20T06:55:25;8.23;;;1.80;;
52554;SDS011;38455;52.710;6.502;2023-05-20T06:57:51;3.00;;;1.67;;
52554;SDS011;38455;52.710;6.502;2023-05-20T07:00:17;4.05;;;1.70;;
52554;SDS011;38455;52.710;6.502;2023-05-20T07:02:43;5.78;;;1.73;;
52554;SDS011;38455;52.710;6.502;2023-05-20T07:05:09;4.00;;;1.63;;
52554;SDS011;38455;52.710;6.502;2023-05-20T07:07:34;3.80;;;1.52;;
52554;SDS011;38455;52.710;6.502;2023-05-20T07:10:00;3.30;;;1.77;;
52554;SDS011;38455;52.710;6.502;2023-05-20T07:12:29;3.17;;;1.70;;
52554;SDS011;38455;52.710;6.502;2023-05-20T07:14:55;3.38;;;1.48;;
52554;SDS011;38455;52.710;6.502;2023-05-20T07:17:21;3.10;;;1.40;;
52554;SDS011;38455;52.710;6.502;2023-05-20T07:19:47;5.40;;;1.80;;
52554;SDS011;38455;52.710;6.502;2023-05-20T07:22:12;3.92;;;1.90;;
52554;SDS011;38455;52.710;6.502;2023-05-20T07:24:38;6.00;;;1.63;;
52554;SDS011;38455;52.710;6.502;2023-05-20T07:27:03;4.00;;;1.50;;
52554;SDS011;38455;52.710;6.502;2023-05-20T07:29:29;5.70;;;2.38;;
52554;SDS011;38455;52.710;6.502;2023-05-20T07:31:55;5.05;;;2.00;;
52554;SDS011;38455;52.710;6.502;2023-05-20T07:34:20;4.22;;;2.13;;
52554;SDS011;38455;52.710;6.502;2023-05-20T07:36:46;3.95;;;1.90;;
52554;SDS011;38455;52.710;6.502;2023-05-20T07:39:13;2.78;;;1.63;;
52554;SDS011;38455;52.710;6.502;2023-05-20T07:41:39;3.22;;;1.73;;
52554;SDS011;38455;52.710;6.502;2023-05-20T07:44:05;4.95;;;1.98;;
52554;SDS011;38455;52.710;6.502;2023-05-20T07:46:35;3.78;;;1.85;;
52554;SDS011;38455;52.710;6.502;2023-05-20T07:49:02;3.92;;;1.88;;
52554;SDS011;38455;52.710;6.502;2023-05-20T07:51:28;2.75;;;1.75;;
52554;SDS011;38455;52.710;6.502;2023-05-20T07:53:55;1.77;;;1.50;;
52554;SDS011;38455;52.710;6.502;2023-05-20T07:56:20;4.30;;;1.85;;
52554;SDS011;38455;52.710;6.502;2023-05-20T07:58:53;2.90;;;1.63;;
52554;SDS011;38455;52.710;6.502;2023-05-20T08:01:20;2.92;;;1.42;;
52554;SDS011;38455;52.710;6.502;2023-05-20T08:03:46;4.75;;;2.17;;
52554;SDS011;38455;52.710;6.502;2023-05-20T08:06:12;3.15;;;1.48;;
52554;SDS011;38455;52.710;6.502;2023-05-20T08:08:37;4.80;;;1.85;;
52554;SDS011;38455;52.710;6.502;2023-05-20T08:11:05;6.05;;;1.90;;
52554;SDS011;38455;52.710;6.502;2023-05-20T08:13:31;4.57;;;2.00;;
52554;SDS011;38455;52.710;6.502;2023-05-20T08:15:57;3.28;;;1.80;;
52554;SDS011;38455;52.710;6.502;2023-05-20T08:18:23;3.53;;;2.28;;
52554;SDS011;38455;52.710;6.502;2023-05-20T08:20:48;5.35;;;2.45;;
52554;SDS011;38455;52.710;6.502;2023-05-20T08:23:14;4.63;;;2.08;;
52554;SDS011;38455;52.710;6.502;2023-05-20T08:25:40;2.10;;;1.50;;
52554;SDS011;38455;52.710;6.502;2023-05-20T08:28:06;4.78;;;2.20;;
52554;SDS011;38455;52.710;6.502;2023-05-20T08:30:32;4.90;;;2.22;;
52554;SDS011;38455;52.710;6.502;2023-05-20T08:32:58;2.58;;;1.58;;
52554;SDS011;38455;52.710;6.502;2023-05-20T08:35:24;3.90;;;1.70;;
52554;SDS011;38455;52.710;6.502;2023-05-20T08:37:50;5.40;;;2.00;;
52554;SDS011;38455;52.710;6.502;2023-05-20T08:40:18;5.78;;;1.70;;
52554;SDS011;38455;52.710;6.502;2023-05-20T08:42:45;3.08;;;1.70;;
52554;SDS011;38455;52.710;6.502;2023-05-20T08:45:13;5.53;;;1.95;;
52554;SDS011;38455;52.710;6.502;2023-05-20T08:47:41;7.28;;;1.52;;
52554;SDS011;38455;52.710;6.502;2023-05-20T08:50:08;4.90;;;1.80;;
52554;SDS011;38455;52.710;6.502;2023-05-20T08:52:36;3.30;;;1.50;;
52554;SDS011;38455;52.710;6.502;2023-05-20T08:55:06;4.65;;;1.90;;
52554;SDS011;38455;52.710;6.502;2023-05-20T08:57:45;6.60;;;1.83;;
52554;SDS011;38455;52.710;6.502;2023-05-20T09:00:12;8.02;;;1.92;;
52554;SDS011;38455;52.710;6.502;2023-05-20T09:02:40;4.07;;;1.58;;
52554;SDS011;38455;52.710;6.502;2023-05-20T09:05:08;6.47;;;1.50;;
52554;SDS011;38455;52.710;6.502;2023-05-20T09:07:35;3.42;;;2.03;;
52554;SDS011;38455;52.710;6.502;2023-05-20T09:10:01;6.05;;;1.70;;
52554;SDS011;38455;52.710;6.502;2023-05-20T09:12:27;9.15;;;2.10;;
52554;SDS011;38455;52.710;6.502;2023-05-20T09:14:52;1.73;;;1.27;;
52554;SDS011;38455;52.710;6.502;2023-05-20T09:17:19;4.38;;;1.30;;
52554;SDS011;38455;52.710;6.502;2023-05-20T09:19:51;7.75;;;1.98;;
52554;SDS011;38455;52.710;6.502;2023-05-20T09:22:24;5.20;;;1.25;;
52554;SDS011;38455;52.710;6.502;2023-05-20T09:24:51;3.97;;;1.70;;
52554;SDS011;38455;52.710;6.502;2023-05-20T09:27:18;4.55;;;1.67;;
52554;SDS011;38455;52.710;6.502;2023-05-20T09:29:45;5.35;;;1.55;;
52554;SDS011;38455;52.710;6.502;2023-05-20T09:32:12;5.55;;;1.77;;
52554;SDS011;38455;52.710;6.502;2023-05-20T09:34:38;8.77;;;2.25;;
52554;SDS011;38455;52.710;6.502;2023-05-20T09:37:07;3.67;;;1.73;;
52554;SDS011;38455;52.710;6.502;2023-05-20T09:39:36;4.07;;;1.60;;
52554;SDS011;38455;52.710;6.502;2023-05-20T09:42:17;3.58;;;1.40;;
52554;SDS011;38455;52.710;6.502;2023-05-20T09:44:50;3.88;;;2.25;;
52554;SDS011;38455;52.710;6.502;2023-05-20T09:47:18;3.28;;;1.45;;
52554;SDS011;38455;52.710;6.502;2023-05-20T09:49:47;4.72;;;1.50;;
52554;SDS011;38455;52.710;6.502;2023-05-20T09:52:16;3.58;;;1.65;;
52554;SDS011;38455;52.710;6.502;2023-05-20T09:54:43;4.75;;;1.92;;
52554;SDS011;38455;52.710;6.502;2023-05-20T09:57:09;3.92;;;1.70;;
52554;SDS011;38455;52.710;6.502;2023-05-20T09:59:35;4.68;;;1.50;;
52554;SDS011;38455;52.710;6.502;2023-05-20T10:02:02;3.13;;;1.30;;
52554;SDS011;38455;52.710;6.502;2023-05-20T10:04:30;3.65;;;1.70;;
52554;SDS011;38455;52.710;6.502;2023-05-20T10:12:40;7.18;;;2.13;;
52554;SDS011;38455;52.710;6.502;2023-05-20T10:15:29;4.32;;;1.65;;
52554;SDS011;38455;52.710;6.502;2023-05-20T10:18:23;6.05;;;1.75;;
52554;SDS011;38455;52.710;6.502;2023-05-20T10:21:00;4.70;;;1.90;;
52554;SDS011;38455;52.710;6.502;2023-05-20T10:23:26;6.18;;;1.85;;
52554;SDS011;38455;52.710;6.502;2023-05-20T10:25:54;4.72;;;1.73;;
52554;SDS011;38455;52.710;6.502;2023-05-20T10:28:26;2.83;;;1.48;;
52554;SDS011;38455;52.710;6.502;2023-05-20T10:30:57;6.47;;;1.83;;
52554;SDS011;38455;52.710;6.502;2023-05-20T10:33:24;10.75;;;2.83;;
52554;SDS011;38455;52.710;6.502;2023-05-20T10:35:51;5.15;;;1.40;;
52554;SDS011;38455;52.710;6.502;2023-05-20T10:38:17;2.67;;;1.70;;
52554;SDS011;38455;52.710;6.502;2023-05-20T10:40:44;7.00;;;2.20;;
52554;SDS011;38455;52.710;6.502;2023-05-20T10:43:10;3.17;;;1.35;;
52554;SDS011;38455;52.710;6.502;2023-05-20T10:45:54;2.83;;;1.48;;
52554;SDS011;38455;52.710;6.502;2023-05-20T10:48:27;7.85;;;2.13;;
52554;SDS011;38455;52.710;6.502;2023-05-20T10:50:54;3.15;;;1.88;;
52554;SDS011;38455;52.710;6.502;2023-05-20T10:53:22;7.20;;;1.73;;
52554;SDS011;38455;52.710;6.502;2023-05-20T10:55:49;3.65;;;1.50;;
52554;SDS011;38455;52.710;6.502;2023-05-20T10:58:16;5.55;;;1.80;;
52554;SDS011;38455;52.710;6.502;2023-05-20T11:00:43;5.65;;;1.50;;
52554;SDS011;38455;52.710;6.502;2023-05-20T11:03:09;9.45;;;1.50;;
52554;SDS011;38455;52.710;6.502;2023-05-20T11:05:38;5.38;;;2.05;;
52554;SDS011;38455;52.710;6.502;2023-05-20T11:08:07;3.80;;;2.08;;
52554;SDS011;38455;52.710;6.502;2023-05-20T11:10:36;4.13;;;1.65;;
52554;SDS011;38455;52.710;6.502;2023-05-20T11:13:03;3.30;;;1.55;;
52554;SDS011;38455;52.710;6.502;2023-05-20T11:15:33;5.72;;;1.50;;
52554;SDS011;38455;52.710;6.502;2023-05-20T11:18:02;3.33;;;1.83;;
52554;SDS011;38455;52.710;6.502;2023-05-20T11:20:29;3.35;;;1.40;;
52554;SDS011;38455;52.710;6.502;2023-05-20T11:22:58;5.22;;;1.73;;
52554;SDS011;38455;52.710;6.502;2023-05-20T11:25:25;4.82;;;1.48;;
52554;SDS011;38455;52.710;6.502;2023-05-20T11:27:52;6.50;;;1.65;;
52554;SDS011;38455;52.710;6.502;2023-05-20T11:30:18;4.28;;;2.13;;
52554;SDS011;38455;52.710;6.502;2023-05-20T11:33:00;5.32;;;1.60;;
52554;SDS011;38455;52.710;6.502;2023-05-20T11:35:28;2.45;;;1.33;;
52554;SDS011;38455;52.710;6.502;2023-05-20T11:38:05;4.40;;;1.52;;
52554;SDS011;38455;52.710;6.502;2023-05-20T11:40:33;4.75;;;1.75;;
52554;SDS011;38455;52.710;6.502;2023-05-20T11:43:02;5.90;;;2.10;;
52554;SDS011;38455;52.710;6.502;2023-05-20T11:45:41;8.00;;;1.63;;
52554;SDS011;38455;52.710;6.502;2023-05-20T11:48:08;3.55;;;1.40;;
52554;SDS011;38455;52.710;6.502;2023-05-20T11:50:35;6.72;;;1.55;;
52554;SDS011;38455;52.710;6.502;2023-05-20T11:53:07;3.42;;;1.42;;
52554;SDS011;38455;52.710;6.502;2023-05-20T11:55:34;9.20;;;1.60;;
52554;SDS011;38455;52.710;6.502;2023-05-20T11:58:17;4.72;;;1.42;;
52554;SDS011;38455;52.710;6.502;2023-05-20T12:00:44;5.03;;;1.50;;
52554;SDS011;38455;52.710;6.502;2023-05-20T12:03:10;5.82;;;1.50;;
52554;SDS011;38455;52.710;6.502;2023-05-20T12:05:36;3.55;;;1.70;;
52554;SDS011;38455;52.710;6.502;2023-05-20T12:08:02;5.97;;;1.50;;
52554;SDS011;38455;52.710;6.502;2023-05-20T12:10:28;3.97;;;1.45;;
52554;SDS011;38455;52.710;6.502;2023-05-20T12:12:55;2.58;;;1.23;;
52554;SDS011;38455;52.710;6.502;2023-05-20T12:15:20;4.85;;;2.10;;
52554;SDS011;38455;52.710;6.502;2023-05-20T12:17:50;8.15;;;1.52;;
52554;SDS011;38455;52.710;6.502;2023-05-20T12:20:17;7.90;;;1.40;;
52554;SDS011;38455;52.710;6.502;2023-05-20T12:22:47;5.47;;;1.50;;
52554;SDS011;38455;52.710;6.502;2023-05-20T12:25:13;4.68;;;2.03;;
52554;SDS011;38455;52.710;6.502;2023-05-20T12:27:40;4.40;;;1.67;;
52554;SDS011;38455;52.710;6.502;2023-05-20T12:30:07;5.03;;;1.63;;
52554;SDS011;38455;52.710;6.502;2023-05-20T12:32:37;5.65;;;1.60;;
52554;SDS011;38455;52.710;6.502;2023-05-20T12:35:03;2.22;;;1.42;;
52554;SDS011;38455;52.710;6.502;2023-05-20T12:37:29;3.78;;;1.23;;
52554;SDS011;38455;52.710;6.502;2023-05-20T12:39:55;5.00;;;1.35;;
52554;SDS011;38455;52.710;6.502;2023-05-20T12:42:20;3.70;;;1.85;;
52554;SDS011;38455;52.710;6.502;2023-05-20T12:44:46;3.33;;;1.48;;
52554;SDS011;38455;52.710;6.502;2023-05-20T12:47:11;4.03;;;1.80;;
52554;SDS011;38455;52.710;6.502;2023-05-20T12:49:37;9.07;;;1.85;;
52554;SDS011;38455;52.710;6.502;2023-05-20T12:52:03;5.18;;;1.33;;
52554;SDS011;38455;52.710;6.502;2023-05-20T12:54:28;2.63;;;1.55;;
52554;SDS011;38455;52.710;6.502;2023-05-20T12:56:54;11.23;;;2.55;;
52554;SDS011;38455;52.710;6.502;2023-05-20T12:59:20;5.88;;;1.50;;
52554;SDS011;38455;52.710;6.502;2023-05-20T13:01:45;4.53;;;1.73;;
52554;SDS011;38455;52.710;6.502;2023-05-20T13:04:12;5.13;;;1.40;;
52554;SDS011;38455;52.710;6.502;2023-05-20T13:06:37;4.40;;;1.30;;
52554;SDS011;38455;52.710;6.502;2023-05-20T13:09:03;7.20;;;1.40;;
52554;SDS011;38455;52.710;6.502;2023-05-20T13:11:29;5.60;;;1.70;;
52554;SDS011;38455;52.710;6.502;2023-05-20T13:13:54;4.63;;;1.58;;
52554;SDS011;38455;52.710;6.502;2023-05-20T13:16:23;5.35;;;1.50;;
52554;SDS011;38455;52.710;6.502;2023-05-20T13:18:49;5.07;;;1.70;;
52554;SDS011;38455;52.710;6.502;2023-05-20T13:21:15;7.80;;;2.05;;
52554;SDS011;38455;52.710;6.502;2023-05-20T13:23:41;4.20;;;1.63;;
52554;SDS011;38455;52.710;6.502;2023-05-20T13:26:07;5.55;;;1.63;;
52554;SDS011;38455;52.710;6.502;2023-05-20T13:28:33;4.40;;;1.40;;
52554;SDS011;38455;52.710;6.502;2023-05-20T13:31:01;4.45;;;1.67;;
52554;SDS011;38455;52.710;6.502;2023-05-20T13:33:28;4.68;;;1.48;;
52554;SDS011;38455;52.710;6.502;2023-05-20T13:35:54;5.53;;;1.40;;
52554;SDS011;38455;52.710;6.502;2023-05-20T13:38:20;5.30;;;1.42;;
52554;SDS011;38455;52.710;6.502;2023-05-20T13:40:45;4.60;;;1.63;;
52554;SDS011;38455;52.710;6.502;2023-05-20T13:43:12;1.63;;;1.15;;
52554;SDS011;38455;52.710;6.502;2023-05-20T13:45:38;5.95;;;1.85;;
52554;SDS011;38455;52.710;6.502;2023-05-20T13:48:04;4.28;;;1.70;;
52554;SDS011;38455;52.710;6.502;2023-05-20T13:50:29;4.60;;;1.38;;
52554;SDS011;38455;52.710;6.502;2023-05-20T13:52:55;5.03;;;1.67;;
52554;SDS011;38455;52.710;6.502;2023-05-20T13:55:21;5.45;;;1.40;;
52554;SDS011;38455;52.710;6.502;2023-05-20T13:57:46;8.20;;;1.67;;
52554;SDS011;38455;52.710;6.502;2023-05-20T14:00:12;4.25;;;1.30;;
52554;SDS011;38455;52.710;6.502;2023-05-20T14:02:38;3.45;;;1.73;;
52554;SDS011;38455;52.710;6.502;2023-05-20T14:05:04;7.63;;;1.50;;
52554;SDS011;38455;52.710;6.502;2023-05-20T14:07:31;3.70;;;1.38;;
52554;SDS011;38455;52.710;6.502;2023-05-20T14:09:57;7.60;;;1.52;;
52554;SDS011;38455;52.710;6.502;2023-05-20T14:12:22;4.47;;;1.38;;
52554;SDS011;38455;52.710;6.502;2023-05-20T14:14:48;5.15;;;1.40;;
52554;SDS011;38455;52.710;6.502;2023-05-20T14:17:14;3.42;;;1.48;;
52554;SDS011;38455;52.710;6.502;2023-05-20T14:19:40;6.65;;;1.92;;
52554;SDS011;38455;52.710;6.502;2023-05-20T14:22:05;4.88;;;1.55;;
52554;SDS011;38455;52.710;6.502;2023-05-20T14:24:31;3.90;;;1.27;;
52554;SDS011;38455;52.710;6.502;2023-05-20T14:26:57;3.63;;;1.55;;
52554;SDS011;38455;52.710;6.502;2023-05-20T14:29:22;4.40;;;1.40;;
52554;SDS011;38455;52.710;6.502;2023-05-20T14:31:48;3.90;;;1.52;;
52554;SDS011;38455;52.710;6.502;2023-05-20T14:34:14;4.45;;;1.40;;
52554;SDS011;38455;52.710;6.502;2023-05-20T14:36:39;3.30;;;1.23;;
52554;SDS011;38455;52.710;6.502;2023-05-20T14:39:05;2.20;;;1.30;;
52554;SDS011;38455;52.710;6.502;2023-05-20T14:41:31;4.18;;;1.30;;
52554;SDS011;38455;52.710;6.502;2023-05-20T14:43:56;6.78;;;1.58;;
52554;SDS011;38455;52.710;6.502;2023-05-20T14:46:22;8.73;;;1.75;;
52554;SDS011;38455;52.710;6.502;2023-05-20T14:48:47;5.05;;;1.67;;